Paw Paw, Illinois
Current Conditions -  °F | °C
As of 7:15 PM on Sunday 23 Nov 2014 (Local Time) from KRPJ Reporting Station
Light Rain Light Rain  
Wind Chill: 44°   Ceiling: 800
Heat Index: 48°   Visibility: 5mi
Dew Point: 47°   Wind: 8mph
Humidity: 99%   Direction: 130°SE
Pressure: 29.28"   Gusts: NA
Location:  41.69°N, 88.98°W
Report Text: KRPJ 240115Z AUTO 13007KT 5SM -RA OVC008 09/09 A2928 RMK AO2 P0001 T00870086
Loading
Personal Weather Stations






























Interactive Weather Map New forecast layout! Learn more

10-Day Weather Forecast

Advertisements
Track Severe Weather on mobile